Latest Weather Observations for Gladstone Airport

IDQ60801

Issued at 3:31 am EST Thursday 3 September 2015 (issued every 30 minutes, with the page automatically refreshed every 10 minutes)

About weather observations | Map of weather stations | Latest weather observations for QLD | Other Formats
Station Details ID: 039326 Name: GLADSTONE AIRPORT Lat: -23.87 Lon: 151.22 Height: 16.6 m
Data from the previous 72 hours. | See also: Recent months at Gladstone Airport
Date/Time
EST
Temp
°C
App
Temp
°C
Dew
Point
Rel
Hum
%
Delta-T
°C
Wind Press
QNH
hPa
Press
MSL
hPa
Rain
since 9 am
mm
Dir
 
Spd
km/h
Gust
km/h
Spd
kts
Gust
kts
03/03:30am 21.8 20.7 17.8 78 2.5 N 20 30 11 16 1013.9 1013.9 0.0
03/03:00am 21.6 20.7 17.8 79 2.4 N 19 26 10 14 1013.9 1013.9 0.0
03/02:30am 21.6 20.7 17.8 79 2.4 N 19 26 10 14 1014.1 1014.1 0.0
03/02:00am 21.6 20.7 17.8 79 2.4 N 19 28 10 15 1014.1 1014.1 0.0
03/01:31am 21.5 20.5 17.9 80 2.2 N 20 28 11 15 1014.4 1014.4 0.0
03/01:30am 21.5 20.5 17.9 80 2.2 N 20 28 11 15 1014.4 1014.4 0.0
03/01:00am 21.4 20.5 18.2 82 2.0 NNE 20 26 11 14 1014.5 1014.5 0.0
03/12:56am 21.4 20.5 18.2 82 2.0 NNE 20 28 11 15 1014.6 1014.6 0.0
03/12:30am 21.5 21.0 17.9 80 2.2 N 17 22 9 12 1015.1 1015.1 0.0
03/12:00am 21.6 21.3 18.2 81 2.1 N 17 24 9 13 1015.6 1015.6 0.0
 
Date/Time
EST
Temp
°C
App
Temp
°C
Dew
Point
Rel
Hum
%
Delta-T
°C
Wind Press
QNH
hPa
Press
MSL
hPa
Rain
since 9 am
mm
Dir
 
Spd
km/h
Gust
km/h
Spd
kts
Gust
kts
02/11:30pm 21.4 21.4 18.2 82 2.0 N 15 20 8 11 1016.1 1016.1 0.0
02/11:00pm 21.3 21.6 17.9 81 2.1 N 13 17 7 9 1016.3 1016.3 0.0
02/10:48pm 21.4 21.7 18.0 81 2.1 N 13 20 7 11 1016.5 1016.5 0.0
02/10:42pm 21.4 21.7 18.0 81 2.1 N 13 20 7 11 1016.6 1016.6 0.0
02/10:30pm 21.3 22.1 18.1 82 2.0 N 11 17 6 9 1016.6 1016.6 0.0
02/10:00pm 21.3 21.7 18.1 82 2.0 N 13 15 7 8 1016.7 1016.7 0.0
02/09:30pm 21.1 21.3 17.7 81 2.1 N 13 19 7 10 1016.6 1016.6 0.0
02/09:25pm 21.1 21.3 17.7 81 2.1 N 13 19 7 10 1016.6 1016.6 0.0
02/09:00pm 20.9 21.1 17.7 82 2.0 N 13 20 7 11 1016.4 1016.4 0.0
02/08:30pm 21.0 21.6 17.6 81 2.1 NNE 11 17 6 9 1016.3 1016.3 0.0
02/08:00pm 21.1 21.7 17.7 81 2.1 NNE 11 17 6 9 1016.3 1016.3 0.0
02/07:30pm 21.2 22.1 17.6 80 2.2 NNE 9 13 5 7 1016.4 1016.4 0.0
02/07:00pm 21.2 22.1 17.6 80 2.2 NE 9 15 5 8 1016.1 1016.1 0.0
02/06:30pm 21.3 21.1 17.5 79 2.3 N 15 24 8 13 1015.8 1015.8 0.0
02/06:00pm 21.6 20.9 17.4 77 2.6 NNE 17 28 9 15 1015.5 1015.5 0.0
02/05:30pm 21.9 20.5 17.1 74 2.9 NNE 20 28 11 15 1015.7 1015.7 0.0
02/05:00pm 22.6 20.8 16.9 70 3.5 NNE 22 32 12 17 1015.6 1015.6 0.0
02/04:30pm 23.3 21.4 16.8 67 4.0 NNE 22 32 12 17 1015.3 1015.3 0.0
02/04:00pm 24.0 22.1 16.8 64 4.4 NNE 22 33 12 18 1015.5 1015.5 0.0
02/03:30pm 24.0 21.8 16.8 64 4.4 NNE 24 33 13 18 1015.4 1015.4 0.0
02/03:00pm 24.3 22.6 17.1 64 4.5 NE 22 30 12 16 1015.8 1015.8 0.0
02/02:30pm 24.5 22.2 16.7 61 4.8 NE 24 32 13 17 1015.9 1015.9 0.0
02/02:00pm 24.5 22.1 16.5 61 4.9 NE 24 32 13 17 1016.1 1016.1 0.0
02/01:30pm 25.1 23.2 14.3 51 6.4 NNE 17 26 9 14 1016.7 1016.7 0.0
02/01:00pm 26.2 24.5 14.6 48 6.9 N 17 26 9 14 1017.3 1017.3 0.0
02/12:30pm 24.8 23.6 16.2 58 5.3 ENE 17 20 9 11 1017.9 1017.9 0.0
02/12:00pm 24.1 22.8 15.9 60 5.0 NE 17 22 9 12 1018.6 1018.6 0.0
02/11:30am 24.2 22.7 15.4 58 5.3 ENE 17 22 9 12 1019.0 1019.0 0.0
02/11:00am 23.7 22.5 14.1 55 5.6 NNE 13 22 7 12 1019.6 1019.6 0.0
02/10:30am 23.7 21.3 14.4 56 5.5 NNW 20 26 11 14 1019.8 1019.8 0.0
02/10:00am 22.6 21.0 13.9 58 5.1 NNW 15 22 8 12 1020.0 1020.0 0.0
02/09:30am 21.6 21.5 12.2 55 5.3 W 4 11 2 6 1020.1 1020.1 0.0
02/09:00am 20.1 19.4 11.3 57 4.8 SSW 6 9 3 5 1020.0 1020.0 0.0
02/08:30am 18.2 16.8 10.8 62 4.0 SSW 9 13 5 7 1019.9 1019.9 0.0
02/08:00am 15.7 13.6 9.6 67 3.2 SW 11 15 6 8 1019.6 1019.6 0.0
02/07:30am 14.1 12.5 8.7 70 2.7 SSW 7 11 4 6 1019.6 1019.6 0.0
02/07:00am 12.7 10.7 8.6 76 2.0 SSW 9 13 5 7 1019.5 1019.5 0.0
02/06:30am 11.1 9.0 8.1 82 1.5 SSW 9 13 5 7 1019.3 1019.3 0.0
02/06:00am 10.8 7.8 7.9 82 1.4 SW 13 17 7 9 1019.1 1019.1 0.0
02/05:30am 11.2 8.3 8.1 81 1.5 SW 13 17 7 9 1018.7 1018.7 0.0
02/05:00am 11.8 8.9 8.3 79 1.7 SW 13 17 7 9 1018.3 1018.3 0.0
02/04:30am 11.9 9.8 8.4 79 1.7 SSW 9 13 5 7 1017.9 1017.9 0.0
02/04:00am 12.2 10.7 8.5 78 1.8 SSW 6 7 3 4 1017.9 1017.9 0.0
02/03:30am 12.7 11.2 9.0 78 1.9 SW 7 11 4 6 1017.6 1017.6 0.0
02/03:00am 12.4 10.8 8.7 78 1.8 SW 7 11 4 6 1017.5 1017.5 0.0
02/02:30am 12.6 11.1 8.5 76 2.0 SSW 6 7 3 4 1017.7 1017.7 0.0
02/02:00am 12.2 11.5 8.5 78 1.8 SW 2 9 1 5 1017.7 1017.7 0.0
02/01:30am 12.3 12.0 8.6 78 1.8 CALM 0 0 0 0 1017.7 1017.7 0.0
02/01:00am 12.6 11.1 8.5 76 2.0 SSW 6 9 3 5 1017.5 1017.5 0.0
02/12:30am 12.8 10.8 8.7 76 2.0 SSW 9 11 5 6 1017.5 1017.5 0.0
02/12:00am 13.4 11.9 8.5 72 2.4 SW 6 9 3 5 1017.5 1017.5 0.0
 
Date/Time
EST
Temp
°C
App
Temp
°C
Dew
Point
Rel
Hum
%
Delta-T
°C
Wind Press
QNH
hPa
Press
MSL
hPa
Rain
since 9 am
mm
Dir
 
Spd
km/h
Gust
km/h
Spd
kts
Gust
kts
01/11:30pm 13.8 11.8 8.8 72 2.5 S 9 13 5 7 1017.8 1017.8 0.0
01/11:00pm 14.3 13.4 9.1 71 2.6 SSE 4 11 2 6 1017.8 1017.8 0.0
01/10:30pm 14.4 13.5 9.2 71 2.7 SSW 4 7 2 4 1017.8 1017.8 0.0
01/10:00pm 14.7 13.5 9.5 71 2.7 SW 6 9 3 5 1017.7 1017.7 0.0
01/09:40pm 15.2 14.0 9.6 69 2.9 SSE 6 7 3 4 1017.6 1017.6 0.0
01/09:30pm 15.6 15.6 9.9 69 3.0 CALM 0 7 0 4 1017.6 1017.6 0.0
01/09:20pm 15.5 15.4 9.6 68 3.1 CALM 0 0 0 0 1017.5 1017.5 0.0
01/09:00pm 15.9 15.9 9.8 67 3.2 CALM 0 0 0 0 1017.4 1017.4 0.0
01/08:30pm 16.5 16.3 9.2 62 3.8 CALM 0 0 0 0 1017.1 1017.1 0.0
01/08:00pm 17.7 17.2 9.3 58 4.4 N 2 6 1 3 1016.9 1016.9 0.0
01/07:30pm 18.8 17.7 10.1 57 4.6 N 6 7 3 4 1016.7 1016.7 0.0
01/07:00pm 19.1 17.0 9.9 55 4.9 N 11 15 6 8 1016.1 1016.1 0.0
01/06:30pm 19.3 18.0 9.8 54 5.1 NNE 7 9 4 5 1015.7 1015.7 0.0
01/06:00pm 19.9 17.9 8.6 48 5.9 NE 9 13 5 7 1015.4 1015.4 0.0
01/05:30pm 20.6 18.1 8.3 45 6.4 NE 11 15 6 8 1015.0 1015.0 0.0
01/05:00pm 21.1 17.9 8.4 44 6.7 NE 15 19 8 10 1014.8 1014.8 0.0
01/04:30pm 22.0 18.5 7.4 39 7.6 NE 15 20 8 11 1014.8 1014.8 0.0
01/04:00pm 22.2 18.1 6.4 36 8.0 NE 17 24 9 13 1014.6 1014.6 0.0
01/03:30pm 22.4 17.8 6.6 36 8.1 NE 20 28 11 15 1014.7 1014.7 0.0
01/03:00pm 22.5 17.5 6.3 35 8.2 NE 22 32 12 17 1014.9 1014.9 0.0
01/02:30pm 22.8 18.2 6.6 35 8.3 NE 20 26 11 14 1015.3 1015.3 0.0
01/02:00pm 22.6 17.8 4.6 31 8.9 NE 19 26 10 14 1015.8 1015.8 0.0
01/01:30pm 21.8 16.6 2.5 28 9.1 NE 19 26 10 14 1016.2 1016.2 0.0
01/01:00pm 22.1 16.8 1.7 26 9.5 NNE 19 24 10 13 1016.7 1016.7 0.0
01/12:30pm 22.2 16.8 2.3 27 9.4 NNE 20 24 11 13 1017.3 1017.3 0.0
01/12:00pm 22.6 18.2 0.4 23 10.1 N 13 22 7 12 1017.8 1017.8 0.0
01/11:30am 23.0 18.9 -0.5 21 10.5 N 11 20 6 11 1018.5 1018.5 0.0
01/11:00am 22.0 18.4 -3.4 18 10.6 N 6 15 3 8 1019.0 1019.0 0.0
01/10:30am 21.1 17.9 0.9 26 9.2 N 7 15 4 8 1019.6 1019.6 0.0
01/10:00am 20.5 17.4 1.4 28 8.7 NW 7 11 4 6 1019.8 1019.8 0.0
01/09:30am 19.3 16.3 1.8 31 8.0 SW 7 11 4 6 1019.9 1019.9 0.0
01/09:00am 18.2 14.9 2.5 35 7.2 SSW 9 13 5 7 1019.8 1019.8 0.0
01/08:30am 16.4 12.9 3.5 42 5.9 SSW 11 15 6 8 1019.6 1019.6 0.0
01/08:00am 14.4 10.7 2.6 45 5.2 SW 11 17 6 9 1019.5 1019.5 0.0
01/07:30am 13.5 10.2 2.4 47 4.9 SSW 9 15 5 8 1019.1 1019.1 0.0
01/07:00am 11.6 8.4 2.9 55 3.8 SW 9 13 5 7 1018.6 1018.6 0.0
01/06:30am 10.3 5.9 2.9 60 3.2 SW 15 19 8 10 1018.4 1018.4 0.0
01/06:00am 9.8 6.3 3.3 64 2.8 SSW 11 13 6 7 1017.9 1017.9 0.0
01/05:30am 9.7 7.5 3.2 64 2.8 SSW 4 7 2 4 1017.5 1017.5 0.0
01/05:00am 10.4 7.2 3.0 60 3.2 SW 9 11 5 6 1017.0 1017.0 0.0
01/04:30am 10.4 7.8 3.4 62 3.1 W 6 7 3 4 1016.6 1016.6 0.0
01/04:00am 12.0 8.3 2.2 51 4.2 SSW 11 17 6 9 1016.1 1016.1 0.0
01/03:30am 11.9 8.5 2.1 51 4.2 SSW 9 13 5 7 1016.4 1016.4 0.0
01/03:00am 11.6 8.3 2.4 53 4.0 SW 9 13 5 7 1016.7 1016.7 0.0
01/02:30am 12.0 8.3 2.2 51 4.2 SW 11 15 6 8 1016.7 1016.7 0.0
01/02:00am 12.6 9.3 2.2 49 4.5 SSW 9 13 5 7 1016.8 1016.8 0.0
01/01:30am 13.0 8.9 2.3 48 4.7 SSW 13 15 7 8 1016.9 1016.9 0.0
01/01:00am 13.4 10.0 2.0 46 4.9 SW 9 11 5 6 1017.1 1017.1 0.0
01/12:30am 13.6 9.5 2.5 47 4.9 SW 13 17 7 9 1017.4 1017.4 0.0
01/12:00am 13.3 10.1 2.8 49 4.6 SW 9 13 5 7 1017.4 1017.4 0.0
 
Date/Time
EST
Temp
°C
App
Temp
°C
Dew
Point
Rel
Hum
%
Delta-T
°C
Wind Press
QNH
hPa
Press
MSL
hPa
Rain
since 9 am
mm
Dir
 
Spd
km/h
Gust
km/h
Spd
kts
Gust
kts
31/11:30pm 13.9 11.0 2.5 46 5.0 SW 7 9 4 5 1017.4 1017.4 0.0
31/11:00pm 14.9 11.5 1.8 41 5.7 WSW 9 11 5 6 1017.4 1017.4 0.0
31/10:30pm 15.1 12.1 2.0 41 5.8 SW 7 11 4 6 1017.1 1017.1 0.0
31/10:00pm 15.1 12.2 2.6 43 5.6 SSW 7 9 4 5 1017.2 1017.2 0.0
31/09:30pm 15.5 12.3 3.0 43 5.7 SSW 9 11 5 6 1017.1 1017.1 0.0
31/09:00pm 15.9 13.1 3.0 42 5.8 SSW 7 9 4 5 1017.0 1017.0 0.0
31/08:30pm 16.6 13.6 2.2 38 6.5 SW 7 9 4 5 1016.8 1016.8 0.0
31/08:00pm 18.2 15.3 1.7 33 7.4 WSW 6 9 3 5 1016.5 1016.5 0.0
31/07:30pm 19.6 16.1 1.1 29 8.3 WSW 9 15 5 8 1016.3 1016.3 0.0
31/07:00pm 20.0 16.5 1.0 28 8.6 WSW 9 15 5 8 1015.8 1015.8 0.0
31/06:30pm 20.4 16.8 0.8 27 8.8 WSW 9 15 5 8 1015.3 1015.3 0.0
31/06:00pm 21.0 16.9 -0.3 24 9.4 WSW 11 17 6 9 1014.8 1014.8 0.0
31/05:30pm 22.1 17.6 0.0 23 9.9 W 13 22 7 12 1014.5 1014.5 0.0
31/05:00pm 23.3 18.9 0.4 22 10.5 WSW 13 22 7 12 1014.1 1014.1 0.0
31/04:30pm 23.8 19.2 1.4 23 10.5 WSW 15 28 8 15 1013.9 1013.9 0.0
31/04:00pm 24.0 18.5 0.4 21 10.9 W 19 26 10 14 1013.5 1013.5 0.0
31/03:30pm 24.4 19.9 1.9 23 10.7 WSW 15 24 8 13 1013.6 1013.6 0.0
31/03:00pm 24.0 18.8 0.4 21 10.9 SW 17 32 9 17 1013.9 1013.9 0.0
31/02:30pm 23.8 19.0 2.6 25 10.1 SW 17 28 9 15 1014.4 1014.4 0.0
31/02:00pm 23.7 18.9 2.5 25 10.1 SW 17 32 9 17 1014.9 1014.9 0.0
31/01:30pm 23.5 18.3 2.4 25 10.0 WSW 19 30 10 16 1015.3 1015.3 0.0
31/01:00pm 23.9 18.9 3.8 27 9.8 WSW 19 35 10 19 1015.6 1015.6 0.0
31/12:30pm 23.2 18.6 3.7 28 9.5 WSW 17 28 9 15 1015.9 1015.9 0.0
31/12:00pm 22.7 17.9 2.8 27 9.5 WSW 17 24 9 13 1016.2 1016.2 0.0
31/11:30am 22.2 18.2 4.7 32 8.6 WNW 15 26 8 14 1016.9 1016.9 0.0
31/11:00am 21.0 17.1 3.2 31 8.4 WSW 13 20 7 11 1017.6 1017.6 0.0
31/10:30am 21.2 18.3 6.7 39 7.4 SW 11 19 6 10 1018.1 1018.1 0.0
31/10:00am 19.3 15.0 3.5 35 7.4 W 15 22 8 12 1018.7 1018.7 0.0
31/09:30am 18.4 14.7 4.6 40 6.6 WSW 13 19 7 10 1018.8 1018.8 0.0
31/09:00am 18.1 14.2 3.2 37 6.9 S 13 20 7 11 1018.8 1018.8 0.0
31/08:30am 17.5 14.1 3.8 40 6.4 SSW 11 17 6 9 1018.6 1018.6 0.0
31/08:00am 16.2 12.5 4.6 46 5.4 S 13 19 7 10 1018.2 1018.2 0.0
31/07:30am 15.2 11.6 5.1 51 4.8 SSW 13 20 7 11 1018.0 1018.0 0.0
31/07:00am 12.9 11.9 5.8 62 3.3 CALM 0 0 0 0 1017.8 1017.8 0.0
31/06:30am 11.4 10.5 5.9 69 2.6 CALM 0 6 0 3 1017.6 1017.6 0.0
31/06:00am 11.2 10.2 5.7 69 2.5 CALM 0 0 0 0 1017.2 1017.2 0.0
31/05:30am 11.7 9.6 5.8 67 2.7 SW 6 9 3 5 1016.8 1016.8 0.0
31/05:00am 12.0 9.9 5.6 65 3.0 SSW 6 9 3 5 1016.6 1016.6 0.0
31/04:30am 12.6 10.4 5.5 62 3.3 SW 6 7 3 4 1016.5 1016.5 0.0
31/04:00am 13.2 11.1 5.6 60 3.6 SW 6 9 3 5 1016.5 1016.5 0.0

Other Formats:

Comma delimited format used in spreadsheet applications
http://www.bom.gov.au/fwo/IDQ60801/IDQ60801.94381.axf

JavaScript Object Notation format (JSON) in row-major order
http://www.bom.gov.au/fwo/IDQ60801/IDQ60801.94381.json